createdAt,value
2022-09-16T00:01:23.329Z,101110.75
2022-09-16T00:03:56.542Z,101110.00
2022-09-16T00:06:27.822Z,101107.44
2022-09-16T00:08:58.505Z,101111.13
2022-09-16T00:11:26.785Z,101105.78
2022-09-16T00:13:56.653Z,101101.47
2022-09-16T00:16:29.284Z,101111.97
2022-09-16T00:19:03.155Z,101109.47
2022-09-16T00:21:32.015Z,101113.47
2022-09-16T00:24:00.484Z,101109.50
2022-09-16T00:26:29.795Z,101117.88
2022-09-16T00:28:59.478Z,101122.59
2022-09-16T00:31:27.735Z,101123.50
2022-09-16T00:33:55.985Z,101117.59
2022-09-16T00:36:24.482Z,101112.59
2022-09-16T00:38:54.777Z,101111.31
2022-09-16T00:41:26.516Z,101122.97
2022-09-16T00:43:59.698Z,101119.69
2022-09-16T00:46:35.632Z,101122.28
2022-09-16T00:49:11.547Z,101113.97
2022-09-16T00:51:41.826Z,101104.50
2022-09-16T00:54:11.116Z,101113.13
2022-09-16T00:56:44.280Z,101111.31
2022-09-16T00:59:20.063Z,101115.94
2022-09-16T01:01:49.479Z,101103.47
2022-09-16T01:04:22.986Z,101112.19
2022-09-16T01:06:52.294Z,101104.84
2022-09-16T01:09:24.256Z,101109.13
2022-09-16T01:11:52.910Z,101109.13
2022-09-16T01:14:42.083Z,101114.72
2022-09-16T01:17:20.439Z,101125.91
2022-09-16T01:20:24.674Z,101133.88
2022-09-16T01:23:29.570Z,101147.44
2022-09-16T01:26:30.711Z,101134.22
2022-09-16T01:29:48.901Z,101136.03
2022-09-16T01:32:27.280Z,101132.00
2022-09-16T01:35:05.823Z,101140.94
2022-09-16T01:37:48.314Z,101130.69
2022-09-16T01:40:26.196Z,101121.81
2022-09-16T01:43:04.645Z,101110.94
2022-09-16T01:45:41.699Z,101116.00
2022-09-16T01:48:23.311Z,101105.03
2022-09-16T01:51:01.876Z,101111.13
2022-09-16T01:53:36.206Z,101117.91
2022-09-16T01:56:10.868Z,101111.31
2022-09-16T01:58:47.340Z,101116.19
2022-09-16T02:01:23.462Z,101108.22
2022-09-16T02:04:01.286Z,101114.16
2022-09-16T02:06:32.253Z,101106.91
2022-09-16T02:09:05.997Z,101112.31
2022-09-16T02:11:36.622Z,101107.59
2022-09-16T02:14:11.182Z,101120.66
2022-09-16T02:16:43.960Z,101120.38
2022-09-16T02:19:18.502Z,101131.13
2022-09-16T02:21:47.861Z,101140.13
2022-09-16T02:24:21.132Z,101144.81
2022-09-16T02:26:55.304Z,101152.56
2022-09-16T02:29:28.000Z,101139.59
2022-09-16T02:32:02.010Z,101131.59
2022-09-16T02:34:38.701Z,101119.06
2022-09-16T02:37:13.556Z,101120.69
2022-09-16T02:39:46.535Z,101102.88
2022-09-16T02:42:15.249Z,101099.47
2022-09-16T02:44:44.369Z,101092.91
2022-09-16T02:47:18.665Z,101092.03
2022-09-16T02:49:56.517Z,101091.13
2022-09-16T02:52:34.774Z,101088.44
2022-09-16T02:55:11.586Z,101094.44
2022-09-16T02:57:39.885Z,101121.06
2022-09-16T03:00:10.544Z,101122.78
2022-09-16T03:02:38.949Z,101114.50
2022-09-16T03:05:09.608Z,101114.06
2022-09-16T03:07:38.448Z,101108.06
2022-09-16T03:10:07.894Z,101101.38
2022-09-16T03:12:56.445Z,101096.88
2022-09-16T03:15:46.821Z,101092.25
2022-09-16T03:18:33.415Z,101098.16
2022-09-16T03:21:10.998Z,101095.81
2022-09-16T03:23:50.338Z,101090.44
2022-09-16T03:26:33.933Z,101093.03
2022-09-16T03:29:13.472Z,101095.41
2022-09-16T03:31:52.370Z,101094.78
2022-09-16T03:34:27.254Z,101091.81
2022-09-16T03:37:04.218Z,101100.06
2022-09-16T03:39:33.064Z,101101.94
2022-09-16T03:42:03.176Z,101102.50
2022-09-16T03:44:36.707Z,101101.66
2022-09-16T03:47:06.102Z,101100.59
2022-09-16T03:49:34.445Z,101097.34
2022-09-16T03:52:05.461Z,101089.72
2022-09-16T03:54:34.020Z,101104.38
2022-09-16T03:57:02.269Z,101114.16
2022-09-16T03:59:30.880Z,101107.78
2022-09-16T04:01:59.186Z,101112.44
2022-09-16T04:04:27.504Z,101103.81
2022-09-16T04:06:55.602Z,101106.22
2022-09-16T04:09:25.210Z,101099.59
2022-09-16T04:11:53.357Z,101097.78
2022-09-16T04:14:21.550Z,101100.34
2022-09-16T04:16:50.107Z,101095.63
2022-09-16T04:19:23.447Z,101094.50
2022-09-16T04:21:51.622Z,101101.78
2022-09-16T04:24:20.098Z,101102.50
2022-09-16T04:26:49.789Z,101111.31
2022-09-16T04:29:18.248Z,101102.59
2022-09-16T04:31:46.427Z,101099.31
2022-09-16T04:34:14.901Z,101102.66
2022-09-16T04:36:43.089Z,101099.63
2022-09-16T04:39:14.122Z,101094.47
2022-09-16T04:41:42.364Z,101102.63
2022-09-16T04:44:12.700Z,101093.91
2022-09-16T04:46:40.886Z,101099.59
2022-09-16T04:49:09.232Z,101091.00
2022-09-16T04:51:37.481Z,101084.72
2022-09-16T04:54:05.831Z,101089.47
2022-09-16T04:56:36.809Z,101100.00
2022-09-16T04:59:07.178Z,101094.53
2022-09-16T05:01:39.869Z,101102.84
2022-09-16T05:04:11.050Z,101106.53
2022-09-16T05:06:41.693Z,101101.34
2022-09-16T05:09:11.691Z,101103.09
2022-09-16T05:11:42.215Z,101101.13
2022-09-16T05:14:15.907Z,101102.44
2022-09-16T05:16:49.133Z,101099.13
2022-09-16T05:19:17.337Z,101104.44
2022-09-16T05:21:50.960Z,101092.97
2022-09-16T05:24:19.133Z,101096.56
2022-09-16T05:26:47.531Z,101088.34
2022-09-16T05:29:20.426Z,101096.19
2022-09-16T05:31:50.680Z,101093.88
2022-09-16T05:34:23.113Z,101102.91
2022-09-16T05:36:53.969Z,101098.66
2022-09-16T05:39:24.436Z,101108.16
2022-09-16T05:41:58.025Z,101102.88
2022-09-16T05:44:27.419Z,101105.56
2022-09-16T05:46:57.570Z,101108.31
2022-09-16T05:49:26.175Z,101101.88
2022-09-16T05:51:55.117Z,101114.06
2022-09-16T05:54:25.119Z,101111.94
2022-09-16T05:56:53.943Z,101109.72
2022-09-16T05:59:22.570Z,101117.69
2022-09-16T06:01:51.233Z,101130.13
2022-09-16T06:04:20.979Z,101136.00
2022-09-16T06:06:49.921Z,101130.47
2022-09-16T06:09:20.722Z,101133.28
2022-09-16T06:11:51.750Z,101145.47
2022-09-16T06:14:22.642Z,101147.28
2022-09-16T06:16:51.186Z,101140.25
2022-09-16T06:19:20.976Z,101132.03
2022-09-16T06:21:49.423Z,101146.94
2022-09-16T06:24:20.161Z,101144.47
2022-09-16T06:26:49.631Z,101149.41
2022-09-16T06:29:18.341Z,101136.41
2022-09-16T06:31:46.641Z,101125.66
2022-09-16T06:34:18.454Z,101135.88
2022-09-16T06:36:48.821Z,101126.50
2022-09-16T06:39:18.166Z,101132.31
2022-09-16T06:41:47.173Z,101127.38
2022-09-16T06:44:15.443Z,101122.59
2022-09-16T06:46:44.132Z,101130.47
2022-09-16T06:49:13.099Z,101116.69
2022-09-16T06:51:41.654Z,101116.25
2022-09-16T06:54:12.958Z,101116.81
2022-09-16T06:56:41.457Z,101121.91
2022-09-16T06:59:11.317Z,101114.38
2022-09-16T07:01:39.545Z,101110.91
2022-09-16T07:04:13.096Z,101120.09
2022-09-16T07:09:32.381Z,101115.03
2022-09-16T07:12:00.667Z,101112.84
2022-09-16T07:14:32.460Z,101118.94
2022-09-16T07:17:01.138Z,101112.13
2022-09-16T07:19:30.121Z,101115.06
2022-09-16T07:21:58.679Z,101127.81
2022-09-16T07:24:27.038Z,101135.03
2022-09-16T07:26:56.559Z,101138.03
2022-09-16T07:29:24.858Z,101130.44
2022-09-16T07:31:53.165Z,101127.06
2022-09-16T07:34:21.373Z,101145.44
2022-09-16T07:36:50.839Z,101142.06
2022-09-16T07:39:21.074Z,101141.72
2022-09-16T07:41:49.902Z,101144.56
2022-09-16T07:44:21.381Z,101147.81
2022-09-16T07:46:51.167Z,101160.00
2022-09-16T07:49:20.198Z,101175.03
2022-09-16T07:51:49.384Z,101170.28
2022-09-16T07:54:19.779Z,101176.03
2022-09-16T07:56:48.263Z,101173.75
2022-09-16T07:59:20.577Z,101165.59
2022-09-16T08:01:50.571Z,101166.25
2022-09-16T08:04:20.256Z,101162.41
2022-09-16T08:06:49.292Z,101167.09
2022-09-16T08:12:10.625Z,101171.00
2022-09-16T08:14:40.267Z,101163.44
2022-09-16T08:17:08.509Z,101169.47
2022-09-16T08:19:38.385Z,101176.06
2022-09-16T08:22:06.852Z,101182.16
2022-09-16T08:24:35.086Z,101186.53
2022-09-16T08:27:03.301Z,101196.81
2022-09-16T08:29:31.762Z,101213.63
2022-09-16T08:32:01.317Z,101216.34
2022-09-16T08:34:29.457Z,101200.28
2022-09-16T08:36:57.639Z,101189.47
2022-09-16T08:39:25.750Z,101189.84
2022-09-16T08:42:25.590Z,101198.53
2022-09-16T08:45:04.466Z,101200.47
2022-09-16T08:47:50.489Z,101191.06
2022-09-16T08:50:25.823Z,101187.66
2022-09-16T08:52:56.750Z,101186.03
2022-09-16T08:55:31.470Z,101195.16
2022-09-16T08:58:04.750Z,101203.91
2022-09-16T09:00:34.154Z,101200.31
2022-09-16T09:03:17.233Z,101179.66
2022-09-16T09:05:52.448Z,101190.56
2022-09-16T09:08:38.122Z,101190.97
2022-09-16T09:11:16.145Z,101182.81
2022-09-16T09:14:09.544Z,101200.31
2022-09-16T09:16:47.757Z,101202.63
2022-09-16T09:19:35.854Z,101203.63
2022-09-16T09:22:26.192Z,101196.19
2022-09-16T09:25:23.695Z,101196.84
2022-09-16T09:28:05.669Z,101196.00
2022-09-16T09:30:38.654Z,101195.53
2022-09-16T09:33:45.657Z,101195.63
2022-09-16T09:36:43.954Z,101214.28
2022-09-16T09:39:51.986Z,101195.59
2022-09-16T09:42:25.699Z,101209.31
2022-09-16T09:45:02.385Z,101219.03
2022-09-16T09:47:38.066Z,101206.84
2022-09-16T09:50:19.712Z,101225.34
2022-09-16T09:52:57.235Z,101232.47
2022-09-16T09:55:32.581Z,101235.38
2022-09-16T09:58:06.336Z,101236.13
2022-09-16T10:00:34.677Z,101234.22
2022-09-16T10:03:07.815Z,101238.22
2022-09-16T10:05:36.210Z,101233.88
2022-09-16T10:08:17.906Z,101243.75
2022-09-16T10:10:52.540Z,101258.09
2022-09-16T10:13:22.340Z,101272.94
2022-09-16T10:15:55.730Z,101270.09
2022-09-16T10:18:31.113Z,101252.34
2022-09-16T10:21:05.910Z,101235.59
2022-09-16T10:23:36.726Z,101226.63
2022-09-16T10:26:20.905Z,101220.72
2022-09-16T10:29:01.893Z,101221.97
2022-09-16T10:31:36.783Z,101214.81
2022-09-16T10:34:19.414Z,101201.13
2022-09-16T10:36:48.163Z,101209.53
2022-09-16T10:39:26.994Z,101191.91
2022-09-16T10:41:55.813Z,101194.22
2022-09-16T10:44:28.323Z,101185.63
2022-09-16T10:47:01.601Z,101183.31
2022-09-16T10:49:40.165Z,101179.88
2022-09-16T10:52:18.843Z,101183.19
2022-09-16T10:54:49.678Z,101178.75
2022-09-16T10:57:28.867Z,101179.34
2022-09-16T11:00:06.615Z,101175.22
2022-09-16T11:03:14.266Z,101173.47
2022-09-16T11:05:56.601Z,101175.50
2022-09-16T11:08:49.125Z,101177.81
2022-09-16T11:11:34.332Z,101172.19
2022-09-16T11:14:15.302Z,101178.75
2022-09-16T11:17:17.874Z,101177.19
2022-09-16T11:20:04.038Z,101178.78
2022-09-16T11:22:43.375Z,101188.13
2022-09-16T11:25:42.659Z,101185.94
2022-09-16T11:28:44.947Z,101183.72
2022-09-16T11:31:26.117Z,101177.50
2022-09-16T11:34:06.087Z,101181.63
2022-09-16T11:36:55.415Z,101192.66
2022-09-16T11:39:59.877Z,101194.75
2022-09-16T11:42:35.350Z,101182.00
2022-09-16T11:45:23.678Z,101187.28
2022-09-16T11:48:20.538Z,101193.06
2022-09-16T11:50:59.161Z,101184.03
2022-09-16T11:54:02.670Z,101180.31
2022-09-16T11:56:39.844Z,101186.19
2022-09-16T11:59:19.713Z,101188.13
2022-09-16T12:01:55.166Z,101195.59
2022-09-16T12:04:33.695Z,101192.22
2022-09-16T12:07:19.017Z,101190.59
2022-09-16T12:10:07.729Z,101184.72
2022-09-16T12:12:52.371Z,101174.31
2022-09-16T12:15:27.124Z,101172.03
2022-09-16T12:18:00.015Z,101181.50
2022-09-16T12:20:35.214Z,101176.91
2022-09-16T12:23:13.618Z,101172.13
2022-09-16T12:25:48.997Z,101177.69
2022-09-16T12:28:21.437Z,101163.25
2022-09-16T12:31:04.267Z,101168.91
2022-09-16T12:33:41.431Z,101172.88
2022-09-16T12:36:18.055Z,101170.38
2022-09-16T12:38:48.834Z,101173.34
2022-09-16T12:41:43.478Z,101164.25
2022-09-16T12:44:36.608Z,101171.94
2022-09-16T12:47:49.630Z,101167.19
2022-09-16T12:51:09.582Z,101185.63
2022-09-16T12:54:17.661Z,101174.03
2022-09-16T12:57:18.215Z,101177.69
2022-09-16T13:00:15.462Z,101185.00
2022-09-16T13:02:49.875Z,101179.56
2022-09-16T13:05:30.849Z,101173.75
2022-09-16T13:08:06.032Z,101182.75
2022-09-16T13:10:54.953Z,101170.88
2022-09-16T13:13:35.215Z,101180.09
2022-09-16T13:16:06.795Z,101177.09
2022-09-16T13:18:45.022Z,101175.75
2022-09-16T13:21:26.133Z,101169.91
2022-09-16T13:24:04.103Z,101177.84
2022-09-16T13:26:42.588Z,101167.97
2022-09-16T13:29:43.718Z,101169.13
2022-09-16T13:32:37.854Z,101160.91
2022-09-16T13:35:22.650Z,101169.16
2022-09-16T13:37:55.548Z,101159.78
2022-09-16T13:40:29.392Z,101163.72
2022-09-16T13:43:13.862Z,101157.59
2022-09-16T13:45:44.500Z,101158.84
2022-09-16T13:48:19.380Z,101166.38
2022-09-16T13:50:54.151Z,101173.06
2022-09-16T13:53:30.834Z,101163.94
2022-09-16T13:56:09.439Z,101167.84
2022-09-16T13:58:45.818Z,101171.50
2022-09-16T14:01:28.236Z,101158.13
2022-09-16T14:04:12.890Z,101165.03
2022-09-16T14:07:20.634Z,101161.63
2022-09-16T14:10:00.365Z,101163.25
2022-09-16T14:12:40.487Z,101163.94
2022-09-16T14:15:09.611Z,101160.88
2022-09-16T14:17:42.332Z,101157.44
2022-09-16T14:20:17.289Z,101171.03
2022-09-16T14:22:46.090Z,101162.97
2022-09-16T14:25:31.123Z,101162.50
2022-09-16T14:28:10.724Z,101159.75
2022-09-16T14:30:45.874Z,101162.50
2022-09-16T14:33:23.870Z,101146.53
2022-09-16T14:36:01.059Z,101155.13
2022-09-16T14:38:46.106Z,101139.69
2022-09-16T14:41:26.102Z,101157.25
2022-09-16T14:43:57.311Z,101158.00
2022-09-16T14:46:28.032Z,101162.56
2022-09-16T14:48:56.416Z,101157.84
2022-09-16T14:51:28.821Z,101170.84
2022-09-16T14:54:15.246Z,101165.81
2022-09-16T14:56:56.240Z,101157.81
2022-09-16T14:59:28.902Z,101155.44
2022-09-16T15:02:02.435Z,101154.34
2022-09-16T15:04:34.161Z,101153.97
2022-09-16T15:07:12.686Z,101159.41
2022-09-16T15:09:48.966Z,101154.72
2022-09-16T15:12:29.502Z,101155.63
2022-09-16T15:14:58.502Z,101143.06
2022-09-16T15:17:31.858Z,101155.66
2022-09-16T15:20:01.409Z,101164.47
2022-09-16T15:22:30.358Z,101160.75
2022-09-16T15:25:00.575Z,101156.47
2022-09-16T15:27:33.952Z,101160.22
2022-09-16T15:30:05.900Z,101163.63
2022-09-16T15:32:46.194Z,101160.88
2022-09-16T15:35:23.441Z,101166.41
2022-09-16T15:37:53.363Z,101171.34
2022-09-16T15:40:36.461Z,101170.88
2022-09-16T15:43:19.578Z,101166.38
2022-09-16T15:46:00.430Z,101170.09
2022-09-16T15:48:35.095Z,101178.16
2022-09-16T15:51:09.473Z,101165.19
2022-09-16T15:53:46.545Z,101163.84
2022-09-16T15:56:29.128Z,101163.97
2022-09-16T15:59:06.815Z,101163.84
2022-09-16T16:01:52.424Z,101167.00
2022-09-16T16:04:28.999Z,101162.22
2022-09-16T16:06:59.861Z,101161.72
2022-09-16T16:09:42.700Z,101176.59
2022-09-16T16:12:16.631Z,101172.59
2022-09-16T16:14:46.882Z,101161.72
2022-09-16T16:17:18.924Z,101165.72
2022-09-16T16:19:49.621Z,101152.63
2022-09-16T16:22:19.517Z,101168.53
2022-09-16T16:24:48.030Z,101168.97
2022-09-16T16:27:16.224Z,101172.56
2022-09-16T16:29:45.841Z,101173.47
2022-09-16T16:32:17.312Z,101169.09
2022-09-16T16:34:50.340Z,101176.78
2022-09-16T16:37:44.926Z,101177.09
2022-09-16T16:40:12.290Z,101187.25
2022-09-16T16:42:43.223Z,101181.47
2022-09-16T16:45:15.561Z,101175.81
2022-09-16T16:47:44.774Z,101171.69
2022-09-16T16:50:13.033Z,101174.66
2022-09-16T16:52:41.793Z,101172.56
2022-09-16T16:55:11.000Z,101182.44
2022-09-16T16:57:39.467Z,101176.06
2022-09-16T17:00:14.348Z,101168.03
2022-09-16T17:02:47.526Z,101173.50
2022-09-16T17:05:16.118Z,101179.03
2022-09-16T17:07:44.703Z,101182.78
2022-09-16T17:10:12.968Z,101174.47
2022-09-16T17:12:41.340Z,101170.75
2022-09-16T17:15:13.192Z,101175.03
2022-09-16T17:17:42.997Z,101177.56
2022-09-16T17:20:11.429Z,101184.06
2022-09-16T17:22:40.569Z,101185.16
2022-09-16T17:25:09.803Z,101194.38
2022-09-16T17:27:38.169Z,101196.38
2022-09-16T17:30:08.243Z,101206.75
2022-09-16T17:32:36.882Z,101196.19
2022-09-16T17:35:07.932Z,101197.28
2022-09-16T17:37:38.726Z,101194.75
2022-09-16T17:40:08.550Z,101210.44
2022-09-16T17:42:53.136Z,101214.16
2022-09-16T17:45:21.502Z,101222.25
2022-09-16T17:47:49.945Z,101208.75
2022-09-16T17:50:22.861Z,101222.53
2022-09-16T17:52:51.556Z,101233.69
2022-09-16T17:55:21.169Z,101226.53
2022-09-16T17:57:55.714Z,101236.78
2022-09-16T18:00:24.594Z,101228.53
2022-09-16T18:02:52.992Z,101235.41
2022-09-16T18:05:25.601Z,101231.91
2022-09-16T18:07:57.695Z,101241.09
2022-09-16T18:10:26.292Z,101231.50
2022-09-16T18:12:54.956Z,101240.75
2022-09-16T18:15:23.275Z,101252.06
2022-09-16T18:17:51.777Z,101250.22
2022-09-16T18:20:20.177Z,101236.66
2022-09-16T18:22:50.049Z,101246.19
2022-09-16T18:25:18.362Z,101240.63
2022-09-16T18:27:46.728Z,101237.75
2022-09-16T18:30:16.791Z,101246.28
2022-09-16T18:32:45.191Z,101244.81
2022-09-16T18:35:13.382Z,101255.19
2022-09-16T18:37:41.765Z,101243.56
2022-09-16T18:40:12.538Z,101238.78
2022-09-16T18:42:40.925Z,101246.72
2022-09-16T18:45:10.298Z,101256.00
2022-09-16T18:47:38.488Z,101254.78
2022-09-16T18:50:08.439Z,101258.13
2022-09-16T18:52:36.730Z,101263.34
2022-09-16T18:55:05.825Z,101270.31
2022-09-16T18:57:35.629Z,101263.72
2022-09-16T19:00:05.073Z,101269.97
2022-09-16T19:02:33.829Z,101264.63
2022-09-16T19:05:02.148Z,101261.09
2022-09-16T19:07:30.454Z,101262.41
2022-09-16T19:09:58.759Z,101275.81
2022-09-16T19:12:27.296Z,101273.41
2022-09-16T19:15:02.048Z,101280.69
2022-09-16T19:17:34.360Z,101287.91
2022-09-16T19:20:04.140Z,101291.16
2022-09-16T19:22:32.436Z,101285.38
2022-09-16T19:25:01.626Z,101287.50
2022-09-16T19:27:30.297Z,101288.69
2022-09-16T19:30:02.268Z,101298.06
2022-09-16T19:32:30.797Z,101299.91
2022-09-16T19:34:59.096Z,101294.59
2022-09-16T19:37:27.350Z,101298.53
2022-09-16T19:39:56.679Z,101303.22
2022-09-16T19:42:24.998Z,101297.69
2022-09-16T19:44:54.584Z,101295.78
2022-09-16T19:47:24.504Z,101298.81
2022-09-16T19:49:52.993Z,101297.78
2022-09-16T19:52:21.133Z,101296.94
2022-09-16T19:54:49.378Z,101295.88
2022-09-16T19:57:18.899Z,101292.28
2022-09-16T19:59:47.737Z,101293.69
2022-09-16T20:02:16.716Z,101299.28
2022-09-16T20:04:46.765Z,101286.25
2022-09-16T20:07:17.388Z,101279.25
2022-09-16T20:09:48.251Z,101281.19
2022-09-16T20:12:16.518Z,101278.53
2022-09-16T20:14:44.826Z,101283.41
2022-09-16T20:17:13.103Z,101276.16
2022-09-16T20:19:41.245Z,101290.09
2022-09-16T20:22:10.835Z,101288.28
2022-09-16T20:24:39.391Z,101288.00
2022-09-16T20:27:07.638Z,101293.00
2022-09-16T20:29:35.929Z,101291.94
2022-09-16T20:32:04.517Z,101289.19
2022-09-16T20:34:32.778Z,101298.75
2022-09-16T20:37:01.058Z,101296.75
2022-09-16T20:39:30.643Z,101301.34
2022-09-16T20:41:58.825Z,101290.56
2022-09-16T20:44:27.089Z,101299.88
2022-09-16T20:46:55.760Z,101300.97
2022-09-16T20:49:24.723Z,101303.13
2022-09-16T20:51:53.179Z,101299.69
2022-09-16T20:54:21.322Z,101315.63
2022-09-16T20:56:51.171Z,101309.59
2022-09-16T20:59:21.511Z,101308.41
2022-09-16T21:01:50.586Z,101310.34
2022-09-16T21:04:21.394Z,101314.06
2022-09-16T21:06:49.896Z,101314.56
2022-09-16T21:09:19.515Z,101306.66
2022-09-16T21:11:49.534Z,101308.91
2022-09-16T21:14:21.450Z,101305.56
2022-09-16T21:16:50.036Z,101312.78
2022-09-16T21:19:18.250Z,101315.22
2022-09-16T21:21:47.743Z,101304.44
2022-09-16T21:24:16.796Z,101311.22
2022-09-16T21:26:46.370Z,101317.72
2022-09-16T21:29:17.560Z,101309.91
2022-09-16T21:31:47.264Z,101316.13
2022-09-16T21:34:17.663Z,101330.34
2022-09-16T21:36:46.591Z,101320.03
2022-09-16T21:39:16.072Z,101333.03
2022-09-16T21:41:45.483Z,101324.38
2022-09-16T21:44:15.396Z,101323.81
2022-09-16T21:46:47.201Z,101328.28
2022-09-16T21:49:23.991Z,101327.50
2022-09-16T21:51:54.008Z,101331.81
2022-09-16T21:54:23.003Z,101334.44
2022-09-16T21:56:52.812Z,101323.31
2022-09-16T21:59:22.457Z,101336.00
2022-09-16T22:01:53.022Z,101341.34
2022-09-16T22:04:24.230Z,101331.31
2022-09-16T22:06:55.469Z,101340.00
2022-09-16T22:09:23.807Z,101338.94
2022-09-16T22:11:52.094Z,101345.69
2022-09-16T22:14:20.494Z,101341.19
2022-09-16T22:16:48.765Z,101339.72
2022-09-16T22:19:19.792Z,101345.84
2022-09-16T22:21:50.335Z,101345.38
2022-09-16T22:24:21.339Z,101358.66
2022-09-16T22:26:51.932Z,101358.31
2022-09-16T22:29:20.607Z,101355.72
2022-09-16T22:31:49.516Z,101366.31
2022-09-16T22:34:19.243Z,101365.78
2022-09-16T22:36:47.494Z,101357.59
2022-09-16T22:39:18.232Z,101357.75
2022-09-16T22:41:46.709Z,101365.34
2022-09-16T22:44:15.877Z,101360.06
2022-09-16T22:46:47.037Z,101356.75
2022-09-16T22:49:16.417Z,101357.84
2022-09-16T22:51:46.220Z,101354.00
2022-09-16T22:54:15.801Z,101365.44
2022-09-16T22:56:44.965Z,101367.31
2022-09-16T22:59:19.121Z,101373.63
2022-09-16T23:01:48.032Z,101365.25
2022-09-16T23:04:17.055Z,101378.00
2022-09-16T23:06:46.725Z,101357.66
2022-09-16T23:09:15.569Z,101366.69
2022-09-16T23:11:43.973Z,101364.66
2022-09-16T23:14:15.439Z,101367.94
2022-09-16T23:16:43.707Z,101359.09
2022-09-16T23:19:13.006Z,101360.31
2022-09-16T23:21:42.102Z,101354.94
2022-09-16T23:24:17.657Z,101363.50
2022-09-16T23:26:46.884Z,101360.88
2022-09-16T23:29:18.184Z,101363.13
2022-09-16T23:31:47.179Z,101364.72
2022-09-16T23:34:19.350Z,101358.66
2022-09-16T23:36:48.098Z,101366.81
2022-09-16T23:39:18.439Z,101373.41
2022-09-16T23:41:47.129Z,101369.78
2022-09-16T23:44:16.921Z,101380.03
2022-09-16T23:46:45.893Z,101392.91
2022-09-16T23:49:16.836Z,101381.34
2022-09-16T23:51:45.119Z,101375.66
2022-09-16T23:54:13.859Z,101375.63
2022-09-16T23:56:44.374Z,101386.03
2022-09-16T23:59:12.789Z,101377.75
